WUK1356 EPPO-EGGW
Flight info
| Callsign | WUK1356 |
|---|---|
| Flight time | 1h 50m |
| Altitude | 34000 |
| Route | ELSUP Z181 XIGRI DCT NOGRO M40 RINIS |
| Aircraft | A321/M-SDE3FGHIRWY/LB1 |
Departure
| Time | 2026-05-08 10:30 |
|---|---|
| Airport | Poznań-Ławica Airport (EPPO) |
Arrival
| Time | 2026-05-08 12:20 |
|---|---|
| Airport | London Luton Airport (EGGW) |
| Time | Latitude | Longitude | Altitude | Speed | Heading |
|---|---|---|---|---|---|
| 2026-05-08 09:45 | 52.41584 | 16.82910 | 300 ft | 0 kts | 192° |
| 2026-05-08 10:21 | 52.41586 | 16.82911 | 300 ft | 2 kts | 192° |
| 2026-05-08 10:21 | 52.41613 | 16.82916 | 300 ft | 3 kts | 174° |
| 2026-05-08 10:21 | 52.41636 | 16.82905 | 302 ft | 3 kts | 132° |
| 2026-05-08 10:22 | 52.41643 | 16.82880 | 301 ft | 1 kts | 71° |
| 2026-05-08 10:22 | 52.41641 | 16.82873 | 301 ft | 0 kts | 71° |
| 2026-05-08 10:25 | 52.41643 | 16.82885 | 302 ft | 3 kts | 72° |
| 2026-05-08 10:25 | 52.41650 | 16.82956 | 300 ft | 9 kts | 96° |
| 2026-05-08 10:25 | 52.41634 | 16.83082 | 302 ft | 14 kts | 103° |
| 2026-05-08 10:25 | 52.41607 | 16.83258 | 300 ft | 18 kts | 104° |
| 2026-05-08 10:26 | 52.41577 | 16.83483 | 301 ft | 22 kts | 101° |
| 2026-05-08 10:26 | 52.41561 | 16.83761 | 296 ft | 27 kts | 94° |
| 2026-05-08 10:26 | 52.41608 | 16.83950 | 297 ft | 15 kts | 38° |
| 2026-05-08 10:26 | 52.41708 | 16.84025 | 295 ft | 13 kts | 22° |
| 2026-05-08 10:27 | 52.41720 | 16.84033 | 295 ft | 0 kts | 22° |
| 2026-05-08 10:28 | 52.41726 | 16.84037 | 295 ft | 3 kts | 22° |
| 2026-05-08 10:29 | 52.41768 | 16.84065 | 298 ft | 9 kts | 21° |
| 2026-05-08 10:29 | 52.41831 | 16.84033 | 301 ft | 13 kts | 295° |
| 2026-05-08 10:29 | 52.41875 | 16.83812 | 302 ft | 46 kts | 287° |
| 2026-05-08 10:29 | 52.42063 | 16.82881 | 308 ft | 123 kts | 287° |
| 2026-05-08 10:30 | 52.42385 | 16.81232 | 461 ft | 170 kts | 289° |
| 2026-05-08 10:30 | 52.42726 | 16.79305 | 1243 ft | 182 kts | 288° |
| 2026-05-08 10:30 | 52.43074 | 16.77243 | 2042 ft | 195 kts | 288° |
| 2026-05-08 10:30 | 52.43501 | 16.74999 | 2569 ft | 219 kts | 290° |
| 2026-05-08 10:31 | 52.44006 | 16.72488 | 3098 ft | 245 kts | 290° |
| 2026-05-08 10:31 | 52.44561 | 16.69735 | 3547 ft | 260 kts | 290° |
| 2026-05-08 10:31 | 52.45125 | 16.66887 | 4237 ft | 265 kts | 289° |
| 2026-05-08 10:31 | 52.45691 | 16.63999 | 4997 ft | 267 kts | 289° |
| 2026-05-08 10:32 | 52.46163 | 16.61042 | 5700 ft | 270 kts | 276° |
| 2026-05-08 10:32 | 52.46258 | 16.57947 | 6440 ft | 272 kts | 272° |
| 2026-05-08 10:32 | 52.46328 | 16.54841 | 7142 ft | 274 kts | 272° |
| 2026-05-08 10:32 | 52.46395 | 16.51706 | 7863 ft | 275 kts | 271° |
| 2026-05-08 10:33 | 52.46461 | 16.48562 | 8588 ft | 277 kts | 271° |
| 2026-05-08 10:33 | 52.46526 | 16.45393 | 9288 ft | 279 kts | 270° |
| 2026-05-08 10:33 | 52.46588 | 16.42190 | 9985 ft | 282 kts | 270° |
| 2026-05-08 10:33 | 52.46648 | 16.38917 | 10343 ft | 297 kts | 270° |
| 2026-05-08 10:34 | 52.46711 | 16.35406 | 10487 ft | 319 kts | 270° |
| 2026-05-08 10:34 | 52.46780 | 16.31688 | 10806 ft | 331 kts | 270° |
| 2026-05-08 10:34 | 52.46852 | 16.27888 | 11360 ft | 335 kts | 270° |
| 2026-05-08 10:34 | 52.46925 | 16.24048 | 11970 ft | 338 kts | 270° |
| 2026-05-08 10:35 | 52.47000 | 16.20177 | 12578 ft | 341 kts | 270° |
| 2026-05-08 10:35 | 52.47074 | 16.16279 | 13180 ft | 344 kts | 270° |
| 2026-05-08 10:35 | 52.47148 | 16.12349 | 13784 ft | 346 kts | 270° |
| 2026-05-08 10:35 | 52.47221 | 16.08378 | 14334 ft | 349 kts | 270° |
| 2026-05-08 10:36 | 52.47294 | 16.04379 | 14873 ft | 352 kts | 270° |
| 2026-05-08 10:36 | 52.47363 | 16.00403 | 15399 ft | 355 kts | 270° |
| 2026-05-08 10:36 | 52.47427 | 15.96340 | 15945 ft | 357 kts | 270° |
| 2026-05-08 10:36 | 52.47492 | 15.92248 | 16480 ft | 360 kts | 270° |
| 2026-05-08 10:37 | 52.47558 | 15.88114 | 17010 ft | 363 kts | 270° |
| 2026-05-08 10:37 | 52.47621 | 15.83963 | 17535 ft | 366 kts | 270° |
| 2026-05-08 10:37 | 52.47684 | 15.79767 | 18119 ft | 370 kts | 270° |
| 2026-05-08 10:37 | 52.47746 | 15.75532 | 18631 ft | 373 kts | 270° |
| 2026-05-08 10:38 | 52.47809 | 15.71266 | 19078 ft | 375 kts | 270° |
| 2026-05-08 10:38 | 52.47872 | 15.66966 | 19541 ft | 378 kts | 270° |
| 2026-05-08 10:38 | 52.47931 | 15.62645 | 20045 ft | 381 kts | 270° |
| 2026-05-08 10:38 | 52.47989 | 15.58290 | 20552 ft | 383 kts | 270° |
| 2026-05-08 10:39 | 52.48047 | 15.53894 | 21008 ft | 386 kts | 270° |
| 2026-05-08 10:39 | 52.48104 | 15.49538 | 21477 ft | 388 kts | 270° |
| 2026-05-08 10:39 | 52.48158 | 15.45089 | 21949 ft | 391 kts | 270° |
| 2026-05-08 10:39 | 52.48210 | 15.40616 | 22407 ft | 394 kts | 270° |
| 2026-05-08 10:40 | 52.48262 | 15.36109 | 22827 ft | 397 kts | 270° |
| 2026-05-08 10:40 | 52.48311 | 15.31568 | 23255 ft | 400 kts | 270° |
| 2026-05-08 10:40 | 52.48357 | 15.26994 | 23666 ft | 402 kts | 269° |
| 2026-05-08 10:40 | 52.48402 | 15.22396 | 24022 ft | 405 kts | 269° |
| 2026-05-08 10:41 | 52.48448 | 15.17767 | 24382 ft | 407 kts | 269° |
| 2026-05-08 10:41 | 52.48494 | 15.13120 | 24737 ft | 409 kts | 269° |
| 2026-05-08 10:41 | 52.48541 | 15.08449 | 25101 ft | 410 kts | 269° |
| 2026-05-08 10:41 | 52.48586 | 15.03763 | 25458 ft | 412 kts | 269° |
| 2026-05-08 10:42 | 52.48627 | 14.99057 | 25806 ft | 413 kts | 269° |
| 2026-05-08 10:42 | 52.48662 | 14.94338 | 26159 ft | 415 kts | 269° |
| 2026-05-08 10:42 | 52.48695 | 14.89603 | 26521 ft | 416 kts | 269° |
| 2026-05-08 10:42 | 52.48728 | 14.84907 | 26856 ft | 418 kts | 269° |
| 2026-05-08 10:43 | 52.48762 | 14.80119 | 27201 ft | 420 kts | 269° |
| 2026-05-08 10:43 | 52.48794 | 14.75325 | 27528 ft | 422 kts | 269° |
| 2026-05-08 10:43 | 52.48823 | 14.70509 | 27855 ft | 423 kts | 269° |
| 2026-05-08 10:43 | 52.48850 | 14.65663 | 28173 ft | 425 kts | 269° |
| 2026-05-08 10:44 | 52.48874 | 14.60807 | 28479 ft | 427 kts | 269° |
| 2026-05-08 10:44 | 52.48896 | 14.55927 | 28779 ft | 429 kts | 268° |
| 2026-05-08 10:44 | 52.48917 | 14.51017 | 29079 ft | 431 kts | 269° |
| 2026-05-08 10:44 | 52.48937 | 14.46091 | 29370 ft | 433 kts | 269° |
| 2026-05-08 10:45 | 52.48957 | 14.41137 | 29660 ft | 435 kts | 269° |
| 2026-05-08 10:45 | 52.48973 | 14.36166 | 29956 ft | 437 kts | 269° |
| 2026-05-08 10:45 | 52.48985 | 14.31162 | 30238 ft | 439 kts | 268° |
| 2026-05-08 10:45 | 52.48995 | 14.26135 | 30478 ft | 441 kts | 268° |
| 2026-05-08 10:46 | 52.49002 | 14.21091 | 30708 ft | 443 kts | 268° |
| 2026-05-08 10:46 | 52.49012 | 14.16024 | 30946 ft | 445 kts | 268° |
| 2026-05-08 10:46 | 52.49022 | 14.10957 | 31269 ft | 444 kts | 268° |
| 2026-05-08 10:46 | 52.49030 | 14.05899 | 31614 ft | 443 kts | 268° |
| 2026-05-08 10:47 | 52.49034 | 14.00845 | 31935 ft | 442 kts | 268° |
| 2026-05-08 10:47 | 52.49034 | 13.95806 | 32258 ft | 442 kts | 268° |
| 2026-05-08 10:47 | 52.49028 | 13.90762 | 32587 ft | 441 kts | 268° |
| 2026-05-08 10:47 | 52.49021 | 13.85740 | 32911 ft | 440 kts | 268° |
| 2026-05-08 10:48 | 52.49012 | 13.80725 | 33224 ft | 439 kts | 268° |
| 2026-05-08 10:48 | 52.49001 | 13.75722 | 33528 ft | 439 kts | 267° |
| 2026-05-08 10:48 | 52.48988 | 13.70716 | 33820 ft | 438 kts | 267° |
| 2026-05-08 10:48 | 52.48973 | 13.65720 | 34113 ft | 438 kts | 267° |
| 2026-05-08 10:49 | 52.48956 | 13.60744 | 34189 ft | 432 kts | 267° |
| 2026-05-08 10:49 | 52.48921 | 13.50994 | 34194 ft | 425 kts | 267° |
| 2026-05-08 10:50 | 52.48874 | 13.41389 | 34198 ft | 424 kts | 267° |
| 2026-05-08 10:50 | 52.48821 | 13.31710 | 34198 ft | 424 kts | 267° |
| 2026-05-08 10:51 | 52.48756 | 13.22033 | 34196 ft | 424 kts | 267° |
| 2026-05-08 10:51 | 52.48685 | 13.12352 | 34202 ft | 424 kts | 267° |
| 2026-05-08 10:52 | 52.48609 | 13.02669 | 34204 ft | 425 kts | 267° |
| 2026-05-08 10:52 | 52.48527 | 12.92974 | 34207 ft | 425 kts | 267° |
| 2026-05-08 10:53 | 52.48440 | 12.83348 | 34210 ft | 425 kts | 267° |
| 2026-05-08 10:53 | 52.48340 | 12.73664 | 34213 ft | 425 kts | 267° |
| 2026-05-08 10:54 | 52.48224 | 12.63972 | 34212 ft | 425 kts | 267° |
| 2026-05-08 10:54 | 52.48104 | 12.54261 | 34202 ft | 430 kts | 268° |
| 2026-05-08 10:55 | 52.47977 | 12.44355 | 34204 ft | 437 kts | 268° |
| 2026-05-08 10:55 | 52.47844 | 12.34361 | 34192 ft | 438 kts | 268° |
| 2026-05-08 10:56 | 52.47704 | 12.24357 | 34193 ft | 439 kts | 268° |
| 2026-05-08 10:56 | 52.47550 | 12.14341 | 34188 ft | 439 kts | 268° |
| 2026-05-08 10:57 | 52.47386 | 12.04324 | 34193 ft | 439 kts | 267° |
| 2026-05-08 10:57 | 52.47127 | 11.89353 | 34202 ft | 440 kts | 267° |
| 2026-05-08 10:58 | 52.46940 | 11.79313 | 34203 ft | 440 kts | 267° |
| 2026-05-08 10:58 | 52.46752 | 11.69268 | 34202 ft | 441 kts | 267° |
| 2026-05-08 10:59 | 52.46554 | 11.59209 | 34208 ft | 441 kts | 267° |
| 2026-05-08 10:59 | 52.46378 | 11.50858 | 34201 ft | 441 kts | 267° |
| 2026-05-08 11:00 | 52.46158 | 11.40801 | 34209 ft | 441 kts | 267° |
| 2026-05-08 11:00 | 52.45934 | 11.30750 | 34216 ft | 441 kts | 267° |
| 2026-05-08 11:01 | 52.45702 | 11.20712 | 34203 ft | 441 kts | 267° |
| 2026-05-08 11:01 | 52.45457 | 11.10673 | 34205 ft | 441 kts | 266° |
| 2026-05-08 11:02 | 52.45067 | 10.95622 | 34206 ft | 441 kts | 266° |
| 2026-05-08 11:03 | 52.44808 | 10.85583 | 34210 ft | 441 kts | 266° |
| 2026-05-08 11:03 | 52.44534 | 10.75543 | 34206 ft | 441 kts | 266° |
| 2026-05-08 11:04 | 52.44253 | 10.65503 | 34195 ft | 440 kts | 266° |
| 2026-05-08 11:04 | 52.43971 | 10.55475 | 34192 ft | 440 kts | 266° |
| 2026-05-08 11:05 | 52.43670 | 10.45465 | 34190 ft | 440 kts | 266° |
| 2026-05-08 11:05 | 52.43364 | 10.35443 | 34184 ft | 440 kts | 266° |
| 2026-05-08 11:06 | 52.43055 | 10.25428 | 34186 ft | 440 kts | 266° |
| 2026-05-08 11:06 | 52.42737 | 10.15471 | 34196 ft | 441 kts | 266° |
| 2026-05-08 11:07 | 52.42400 | 10.05437 | 34204 ft | 441 kts | 266° |
| 2026-05-08 11:07 | 52.42057 | 9.95409 | 34207 ft | 441 kts | 266° |
| 2026-05-08 11:08 | 52.41705 | 9.85375 | 34208 ft | 441 kts | 266° |
| 2026-05-08 11:08 | 52.41350 | 9.75343 | 34210 ft | 441 kts | 266° |
| 2026-05-08 11:09 | 52.40991 | 9.65328 | 34211 ft | 441 kts | 266° |
| 2026-05-08 11:09 | 52.40626 | 9.55324 | 34209 ft | 440 kts | 266° |
| 2026-05-08 11:10 | 52.40245 | 9.45318 | 34207 ft | 440 kts | 266° |
| 2026-05-08 11:10 | 52.39852 | 9.35333 | 34207 ft | 440 kts | 266° |
| 2026-05-08 11:11 | 52.39447 | 9.25344 | 34200 ft | 439 kts | 266° |
| 2026-05-08 11:11 | 52.39038 | 9.15367 | 34176 ft | 439 kts | 266° |
| 2026-05-08 11:12 | 52.38625 | 9.05386 | 34177 ft | 440 kts | 266° |
| 2026-05-08 11:12 | 52.38201 | 8.95402 | 34176 ft | 440 kts | 266° |
| 2026-05-08 11:13 | 52.37772 | 8.85419 | 34172 ft | 440 kts | 266° |
| 2026-05-08 11:13 | 52.37334 | 8.75442 | 34174 ft | 440 kts | 266° |
| 2026-05-08 11:14 | 52.36885 | 8.65463 | 34168 ft | 439 kts | 266° |
| 2026-05-08 11:14 | 52.36425 | 8.55486 | 34167 ft | 439 kts | 266° |
| 2026-05-08 11:15 | 52.35959 | 8.45521 | 34173 ft | 439 kts | 265° |
| 2026-05-08 11:15 | 52.35480 | 8.35559 | 34173 ft | 439 kts | 265° |
| 2026-05-08 11:16 | 52.35001 | 8.25599 | 34175 ft | 439 kts | 265° |
| 2026-05-08 11:16 | 52.34512 | 8.15639 | 34185 ft | 439 kts | 265° |
| 2026-05-08 11:17 | 52.34022 | 8.05747 | 34183 ft | 439 kts | 265° |
| 2026-05-08 11:17 | 52.33521 | 7.95800 | 34180 ft | 439 kts | 265° |
| 2026-05-08 11:18 | 52.33005 | 7.85856 | 34168 ft | 439 kts | 265° |
| 2026-05-08 11:18 | 52.32474 | 7.75911 | 34178 ft | 439 kts | 265° |
| 2026-05-08 11:19 | 52.31936 | 7.65975 | 34176 ft | 439 kts | 265° |
| 2026-05-08 11:19 | 52.31401 | 7.56033 | 34178 ft | 439 kts | 265° |
| 2026-05-08 11:20 | 52.30852 | 7.46098 | 34176 ft | 439 kts | 264° |
| 2026-05-08 11:20 | 52.30297 | 7.36167 | 34173 ft | 438 kts | 264° |
| 2026-05-08 11:21 | 52.29735 | 7.26257 | 34166 ft | 438 kts | 264° |
| 2026-05-08 11:21 | 52.29160 | 7.16349 | 34165 ft | 438 kts | 264° |
| 2026-05-08 11:22 | 52.28583 | 7.06447 | 34164 ft | 438 kts | 264° |
| 2026-05-08 11:22 | 52.28005 | 6.96611 | 34159 ft | 437 kts | 264° |
| 2026-05-08 11:23 | 52.27410 | 6.86729 | 34157 ft | 437 kts | 264° |
| 2026-05-08 11:23 | 52.26801 | 6.76849 | 34158 ft | 437 kts | 264° |
| 2026-05-08 11:24 | 52.26188 | 6.66967 | 34156 ft | 437 kts | 264° |
| 2026-05-08 11:24 | 52.25569 | 6.57122 | 34152 ft | 436 kts | 263° |
| 2026-05-08 11:25 | 52.24943 | 6.47267 | 34148 ft | 436 kts | 263° |
| 2026-05-08 11:25 | 52.24314 | 6.37498 | 34144 ft | 435 kts | 263° |
| 2026-05-08 11:26 | 52.23672 | 6.27683 | 34144 ft | 435 kts | 263° |
| 2026-05-08 11:26 | 52.23021 | 6.17868 | 34144 ft | 435 kts | 263° |
| 2026-05-08 11:27 | 52.22364 | 6.08049 | 34144 ft | 435 kts | 263° |
| 2026-05-08 11:27 | 52.21696 | 5.98252 | 34147 ft | 435 kts | 263° |
| 2026-05-08 11:28 | 52.21022 | 5.88443 | 34146 ft | 435 kts | 263° |
| 2026-05-08 11:28 | 52.20341 | 5.78645 | 34150 ft | 435 kts | 263° |
| 2026-05-08 11:29 | 52.19650 | 5.68851 | 34147 ft | 435 kts | 263° |
| 2026-05-08 11:29 | 52.18955 | 5.59110 | 34145 ft | 435 kts | 263° |
| 2026-05-08 11:30 | 52.18248 | 5.49316 | 34140 ft | 435 kts | 262° |
| 2026-05-08 11:30 | 52.17531 | 5.39527 | 34143 ft | 435 kts | 262° |
| 2026-05-08 11:31 | 52.16810 | 5.29747 | 34138 ft | 435 kts | 262° |
| 2026-05-08 11:31 | 52.16080 | 5.19956 | 34139 ft | 435 kts | 262° |
| 2026-05-08 11:32 | 52.15344 | 5.10173 | 34144 ft | 435 kts | 262° |
| 2026-05-08 11:32 | 52.14595 | 5.00393 | 34144 ft | 435 kts | 262° |
| 2026-05-08 11:33 | 52.13836 | 4.90614 | 34074 ft | 434 kts | 262° |
| 2026-05-08 11:33 | 52.13081 | 4.80939 | 34134 ft | 429 kts | 262° |
| 2026-05-08 11:34 | 52.12325 | 4.71320 | 34133 ft | 428 kts | 262° |
| 2026-05-08 11:34 | 52.11559 | 4.61705 | 34133 ft | 428 kts | 262° |
| 2026-05-08 11:35 | 52.10789 | 4.52163 | 34135 ft | 428 kts | 262° |
| 2026-05-08 11:35 | 52.09996 | 4.42561 | 34141 ft | 428 kts | 262° |
| 2026-05-08 11:36 | 52.09202 | 4.32956 | 34144 ft | 429 kts | 262° |
| 2026-05-08 11:36 | 52.08410 | 4.23344 | 34145 ft | 429 kts | 262° |
| 2026-05-08 11:37 | 52.07608 | 4.13718 | 34145 ft | 429 kts | 261° |
| 2026-05-08 11:37 | 52.06791 | 4.04116 | 34149 ft | 429 kts | 261° |
| 2026-05-08 11:38 | 52.05964 | 3.94504 | 34148 ft | 429 kts | 261° |
| 2026-05-08 11:38 | 52.05136 | 3.84901 | 34150 ft | 429 kts | 261° |
| 2026-05-08 11:39 | 52.04297 | 3.75311 | 34151 ft | 429 kts | 261° |
| 2026-05-08 11:39 | 52.03448 | 3.65701 | 34145 ft | 429 kts | 261° |
| 2026-05-08 11:40 | 52.02598 | 3.56108 | 34148 ft | 429 kts | 261° |
| 2026-05-08 11:40 | 52.01742 | 3.46626 | 33977 ft | 420 kts | 261° |
| 2026-05-08 11:40 | 52.01317 | 3.41962 | 33483 ft | 417 kts | 261° |
| 2026-05-08 11:41 | 52.00892 | 3.37310 | 32839 ft | 417 kts | 261° |
| 2026-05-08 11:41 | 52.00465 | 3.32654 | 32152 ft | 418 kts | 261° |
| 2026-05-08 11:41 | 52.00035 | 3.27976 | 31441 ft | 421 kts | 261° |
| 2026-05-08 11:41 | 51.99600 | 3.23262 | 30731 ft | 423 kts | 261° |
| 2026-05-08 11:42 | 51.99161 | 3.18521 | 29976 ft | 426 kts | 261° |
| 2026-05-08 11:42 | 51.98719 | 3.13767 | 29184 ft | 427 kts | 261° |
| 2026-05-08 11:42 | 51.98276 | 3.09020 | 28604 ft | 424 kts | 261° |
| 2026-05-08 11:42 | 51.97835 | 3.04309 | 28046 ft | 420 kts | 261° |
| 2026-05-08 11:43 | 51.97396 | 2.99638 | 27497 ft | 417 kts | 261° |
| 2026-05-08 11:43 | 51.96960 | 2.95013 | 26948 ft | 414 kts | 261° |
| 2026-05-08 11:43 | 51.96523 | 2.90427 | 26416 ft | 410 kts | 260° |
| 2026-05-08 11:43 | 51.96086 | 2.85868 | 25879 ft | 407 kts | 260° |
| 2026-05-08 11:44 | 51.95652 | 2.81344 | 25368 ft | 404 kts | 260° |
| 2026-05-08 11:44 | 51.95220 | 2.76855 | 24851 ft | 402 kts | 260° |
| 2026-05-08 11:44 | 51.94790 | 2.72397 | 24358 ft | 399 kts | 260° |
| 2026-05-08 11:44 | 51.94362 | 2.67972 | 23888 ft | 396 kts | 260° |
| 2026-05-08 11:45 | 51.93931 | 2.63566 | 23363 ft | 394 kts | 260° |
| 2026-05-08 11:45 | 51.93507 | 2.59257 | 22847 ft | 391 kts | 260° |
| 2026-05-08 11:45 | 51.93081 | 2.54918 | 22347 ft | 389 kts | 260° |
| 2026-05-08 11:45 | 51.92660 | 2.50611 | 22109 ft | 387 kts | 260° |
| 2026-05-08 11:46 | 51.92235 | 2.46308 | 22123 ft | 388 kts | 260° |
| 2026-05-08 11:46 | 51.91805 | 2.41994 | 22126 ft | 389 kts | 260° |
| 2026-05-08 11:46 | 51.91372 | 2.37669 | 22127 ft | 389 kts | 260° |
| 2026-05-08 11:46 | 51.90939 | 2.33345 | 22126 ft | 389 kts | 261° |
| 2026-05-08 11:47 | 51.90747 | 2.28980 | 22132 ft | 390 kts | 267° |
| 2026-05-08 11:47 | 51.90652 | 2.24594 | 22127 ft | 390 kts | 267° |
| 2026-05-08 11:47 | 51.90588 | 2.21618 | 22128 ft | 390 kts | 267° |
| 2026-05-08 11:47 | 51.90491 | 2.17234 | 22127 ft | 390 kts | 267° |
| 2026-05-08 11:48 | 51.90391 | 2.12839 | 22128 ft | 390 kts | 266° |
| 2026-05-08 11:48 | 51.90286 | 2.08509 | 22126 ft | 390 kts | 266° |
| 2026-05-08 11:48 | 51.90176 | 2.04125 | 22126 ft | 390 kts | 266° |
| 2026-05-08 11:48 | 51.90061 | 1.99737 | 22126 ft | 390 kts | 266° |
| 2026-05-08 11:49 | 51.89959 | 1.95346 | 22124 ft | 390 kts | 269° |
| 2026-05-08 11:49 | 51.90260 | 1.90974 | 22126 ft | 392 kts | 282° |
| 2026-05-08 11:49 | 51.91163 | 1.86815 | 22126 ft | 393 kts | 295° |
| 2026-05-08 11:49 | 51.92622 | 1.83067 | 22128 ft | 395 kts | 308° |
| 2026-05-08 11:50 | 51.94393 | 1.79657 | 22127 ft | 396 kts | 309° |
| 2026-05-08 11:50 | 51.96166 | 1.76247 | 22122 ft | 396 kts | 309° |
| 2026-05-08 11:50 | 51.97932 | 1.72830 | 22121 ft | 396 kts | 308° |
| 2026-05-08 11:50 | 51.99695 | 1.69404 | 22125 ft | 396 kts | 308° |
| 2026-05-08 11:51 | 52.01461 | 1.65963 | 22124 ft | 395 kts | 308° |
| 2026-05-08 11:51 | 52.03221 | 1.62531 | 22125 ft | 396 kts | 308° |
| 2026-05-08 11:51 | 52.04976 | 1.59113 | 21870 ft | 393 kts | 308° |
| 2026-05-08 11:51 | 52.06724 | 1.55708 | 21408 ft | 390 kts | 308° |
| 2026-05-08 11:52 | 52.08457 | 1.52328 | 20940 ft | 388 kts | 308° |
| 2026-05-08 11:52 | 52.10175 | 1.48965 | 20474 ft | 385 kts | 308° |
| 2026-05-08 11:52 | 52.11879 | 1.45620 | 20031 ft | 383 kts | 308° |
| 2026-05-08 11:52 | 52.13570 | 1.42296 | 19565 ft | 380 kts | 308° |
| 2026-05-08 11:53 | 52.15110 | 1.38829 | 19108 ft | 376 kts | 297° |
| 2026-05-08 11:53 | 52.16172 | 1.34975 | 18664 ft | 371 kts | 286° |
| 2026-05-08 11:53 | 52.16727 | 1.30908 | 18163 ft | 366 kts | 275° |
| 2026-05-08 11:53 | 52.17042 | 1.26858 | 17623 ft | 364 kts | 275° |
| 2026-05-08 11:54 | 52.17365 | 1.22731 | 17095 ft | 362 kts | 276° |
| 2026-05-08 11:54 | 52.17680 | 1.18727 | 16596 ft | 360 kts | 276° |
| 2026-05-08 11:54 | 52.17998 | 1.14697 | 16100 ft | 358 kts | 276° |
| 2026-05-08 11:54 | 52.18315 | 1.10689 | 15617 ft | 355 kts | 276° |
| 2026-05-08 11:55 | 52.18628 | 1.06710 | 15134 ft | 353 kts | 276° |
| 2026-05-08 11:55 | 52.18937 | 1.02746 | 14652 ft | 351 kts | 276° |
| 2026-05-08 11:55 | 52.19241 | 0.98809 | 14223 ft | 349 kts | 276° |
| 2026-05-08 11:55 | 52.19543 | 0.94894 | 14091 ft | 349 kts | 275° |
| 2026-05-08 11:56 | 52.19843 | 0.90954 | 14115 ft | 351 kts | 275° |
| 2026-05-08 11:56 | 52.20141 | 0.86999 | 14113 ft | 351 kts | 275° |
| 2026-05-08 11:56 | 52.20437 | 0.83052 | 14110 ft | 351 kts | 275° |
| 2026-05-08 11:56 | 52.20732 | 0.79127 | 14104 ft | 343 kts | 275° |
| 2026-05-08 11:57 | 52.21018 | 0.75355 | 14104 ft | 326 kts | 275° |
| 2026-05-08 11:57 | 52.21287 | 0.71764 | 14108 ft | 311 kts | 275° |
| 2026-05-08 11:57 | 52.21543 | 0.68307 | 14107 ft | 306 kts | 275° |
| 2026-05-08 11:57 | 52.21797 | 0.64862 | 14099 ft | 305 kts | 275° |
| 2026-05-08 11:58 | 52.22047 | 0.61430 | 14102 ft | 305 kts | 275° |
| 2026-05-08 11:58 | 52.22282 | 0.57951 | 14108 ft | 319 kts | 274° |
| 2026-05-08 11:58 | 52.22519 | 0.54314 | 14094 ft | 322 kts | 276° |
| 2026-05-08 11:59 | 52.23204 | 0.47412 | 14095 ft | 295 kts | 278° |
| 2026-05-08 11:59 | 52.23569 | 0.44130 | 14102 ft | 294 kts | 278° |
| 2026-05-08 11:59 | 52.23933 | 0.40849 | 14100 ft | 294 kts | 278° |
| 2026-05-08 11:59 | 52.24286 | 0.37572 | 14108 ft | 293 kts | 278° |
| 2026-05-08 12:00 | 52.24633 | 0.34289 | 14108 ft | 293 kts | 277° |
| 2026-05-08 12:00 | 52.24972 | 0.31012 | 14113 ft | 293 kts | 278° |
| 2026-05-08 12:00 | 52.25308 | 0.27730 | 14110 ft | 293 kts | 277° |
| 2026-05-08 12:00 | 52.25642 | 0.24452 | 14108 ft | 293 kts | 277° |
| 2026-05-08 12:01 | 52.25975 | 0.21180 | 14112 ft | 293 kts | 277° |
| 2026-05-08 12:01 | 52.26307 | 0.17899 | 14113 ft | 293 kts | 277° |
| 2026-05-08 12:01 | 52.26637 | 0.14620 | 14113 ft | 292 kts | 277° |
| 2026-05-08 12:01 | 52.26962 | 0.11348 | 14114 ft | 293 kts | 277° |
| 2026-05-08 12:02 | 52.27288 | 0.08071 | 14112 ft | 292 kts | 277° |
| 2026-05-08 12:02 | 52.27616 | 0.04791 | 14111 ft | 292 kts | 277° |
| 2026-05-08 12:02 | 52.27943 | 0.01520 | 14096 ft | 292 kts | 277° |
| 2026-05-08 12:02 | 52.28269 | -0.01739 | 13783 ft | 290 kts | 277° |
| 2026-05-08 12:03 | 52.28588 | -0.04977 | 13421 ft | 288 kts | 277° |
| 2026-05-08 12:03 | 52.28902 | -0.08193 | 13063 ft | 286 kts | 277° |
| 2026-05-08 12:03 | 52.29213 | -0.11383 | 12736 ft | 283 kts | 277° |
| 2026-05-08 12:03 | 52.29521 | -0.14555 | 12389 ft | 281 kts | 276° |
| 2026-05-08 12:04 | 52.29422 | -0.17680 | 12059 ft | 274 kts | 249° |
| 2026-05-08 12:04 | 52.28418 | -0.20250 | 11708 ft | 270 kts | 220° |
| 2026-05-08 12:04 | 52.26773 | -0.21637 | 11356 ft | 270 kts | 192° |
| 2026-05-08 12:04 | 52.24916 | -0.21566 | 11048 ft | 266 kts | 172° |
| 2026-05-08 12:05 | 52.23121 | -0.21048 | 10860 ft | 256 kts | 172° |
| 2026-05-08 12:05 | 52.21396 | -0.20542 | 10585 ft | 250 kts | 172° |
| 2026-05-08 12:05 | 52.19685 | -0.20043 | 10240 ft | 249 kts | 172° |
| 2026-05-08 12:05 | 52.17988 | -0.19538 | 9870 ft | 247 kts | 171° |
| 2026-05-08 12:06 | 52.16305 | -0.19011 | 9498 ft | 246 kts | 171° |
| 2026-05-08 12:06 | 52.14633 | -0.18478 | 9134 ft | 244 kts | 170° |
| 2026-05-08 12:06 | 52.12975 | -0.17947 | 8788 ft | 242 kts | 170° |
| 2026-05-08 12:06 | 52.11319 | -0.17715 | 8434 ft | 238 kts | 187° |
| 2026-05-08 12:07 | 52.09757 | -0.18491 | 8081 ft | 236 kts | 208° |
| 2026-05-08 12:07 | 52.08495 | -0.20178 | 7694 ft | 237 kts | 227° |
| 2026-05-08 12:07 | 52.07404 | -0.22186 | 7306 ft | 237 kts | 226° |
| 2026-05-08 12:07 | 52.06306 | -0.24196 | 6932 ft | 238 kts | 226° |
| 2026-05-08 12:08 | 52.05208 | -0.26200 | 6561 ft | 238 kts | 226° |
| 2026-05-08 12:08 | 52.04107 | -0.28206 | 6161 ft | 237 kts | 226° |
| 2026-05-08 12:08 | 52.03012 | -0.30200 | 5785 ft | 236 kts | 226° |
| 2026-05-08 12:08 | 52.01921 | -0.32182 | 5418 ft | 234 kts | 226° |
| 2026-05-08 12:09 | 52.00838 | -0.34145 | 5139 ft | 232 kts | 226° |
| 2026-05-08 12:09 | 51.99853 | -0.36223 | 5089 ft | 234 kts | 238° |
| 2026-05-08 12:09 | 51.99250 | -0.38697 | 5109 ft | 238 kts | 251° |
| 2026-05-08 12:09 | 51.98784 | -0.41272 | 5109 ft | 238 kts | 251° |
| 2026-05-08 12:10 | 51.98302 | -0.43833 | 5110 ft | 237 kts | 247° |
| 2026-05-08 12:10 | 51.97531 | -0.46125 | 5108 ft | 234 kts | 230° |
| 2026-05-08 12:10 | 51.96517 | -0.48186 | 5111 ft | 234 kts | 229° |
| 2026-05-08 12:10 | 51.95504 | -0.50253 | 5112 ft | 234 kts | 229° |
| 2026-05-08 12:11 | 51.94494 | -0.52322 | 5111 ft | 234 kts | 229° |
| 2026-05-08 12:11 | 51.93487 | -0.54391 | 5108 ft | 234 kts | 229° |
| 2026-05-08 12:11 | 51.92484 | -0.56454 | 5106 ft | 233 kts | 229° |
| 2026-05-08 12:11 | 51.91482 | -0.58521 | 5105 ft | 233 kts | 229° |
| 2026-05-08 12:12 | 51.90496 | -0.60601 | 5100 ft | 233 kts | 234° |
| 2026-05-08 12:12 | 51.89816 | -0.62995 | 5104 ft | 237 kts | 251° |
| 2026-05-08 12:12 | 51.89381 | -0.65563 | 5105 ft | 236 kts | 252° |
| 2026-05-08 12:12 | 51.88935 | -0.68119 | 5079 ft | 232 kts | 251° |
| 2026-05-08 12:13 | 51.88511 | -0.70541 | 5086 ft | 214 kts | 251° |
| 2026-05-08 12:13 | 51.88125 | -0.72741 | 5095 ft | 192 kts | 250° |
| 2026-05-08 12:13 | 51.87498 | -0.74504 | 5104 ft | 178 kts | 220° |
| 2026-05-08 12:13 | 51.86460 | -0.75390 | 4812 ft | 166 kts | 189° |
| 2026-05-08 12:14 | 51.85324 | -0.75238 | 4248 ft | 165 kts | 163° |
| 2026-05-08 12:14 | 51.84227 | -0.74716 | 3708 ft | 164 kts | 162° |
| 2026-05-08 12:14 | 51.83167 | -0.74077 | 3176 ft | 162 kts | 149° |
| 2026-05-08 12:14 | 51.82340 | -0.72849 | 3105 ft | 165 kts | 127° |
| 2026-05-08 12:15 | 51.81852 | -0.71164 | 3096 ft | 167 kts | 106° |
| 2026-05-08 12:15 | 51.81811 | -0.69266 | 3094 ft | 173 kts | 84° |
| 2026-05-08 12:15 | 51.82126 | -0.67381 | 3095 ft | 173 kts | 77° |
| 2026-05-08 12:15 | 51.82457 | -0.65517 | 3108 ft | 173 kts | 77° |
| 2026-05-08 12:16 | 51.82787 | -0.63648 | 3102 ft | 173 kts | 77° |
| 2026-05-08 12:16 | 51.83106 | -0.61841 | 3092 ft | 160 kts | 77° |
| 2026-05-08 12:16 | 51.83401 | -0.60163 | 3094 ft | 155 kts | 77° |
| 2026-05-08 12:16 | 51.83693 | -0.58494 | 3040 ft | 153 kts | 77° |
| 2026-05-08 12:17 | 51.83981 | -0.56852 | 2890 ft | 148 kts | 77° |
| 2026-05-08 12:17 | 51.84255 | -0.55285 | 2718 ft | 142 kts | 77° |
| 2026-05-08 12:17 | 51.84524 | -0.53748 | 2531 ft | 142 kts | 78° |
| 2026-05-08 12:17 | 51.84792 | -0.52211 | 2348 ft | 141 kts | 79° |
| 2026-05-08 12:18 | 51.85055 | -0.50705 | 2158 ft | 138 kts | 78° |
| 2026-05-08 12:18 | 51.85318 | -0.49193 | 1960 ft | 141 kts | 78° |
| 2026-05-08 12:18 | 51.85581 | -0.47686 | 1780 ft | 138 kts | 79° |
| 2026-05-08 12:18 | 51.85844 | -0.46173 | 1585 ft | 140 kts | 78° |
| 2026-05-08 12:19 | 51.86107 | -0.44666 | 1387 ft | 138 kts | 78° |
| 2026-05-08 12:19 | 51.86371 | -0.43147 | 1244 ft | 147 kts | 77° |
| 2026-05-08 12:19 | 51.86653 | -0.41561 | 1048 ft | 148 kts | 76° |
| 2026-05-08 12:19 | 51.86923 | -0.39983 | 826 ft | 139 kts | 78° |
| 2026-05-08 12:20 | 51.87171 | -0.38518 | 568 ft | 130 kts | 78° |
| 2026-05-08 12:20 | 51.87380 | -0.37267 | 521 ft | 93 kts | 77° |
| 2026-05-08 12:20 | 51.87513 | -0.36526 | 524 ft | 45 kts | 72° |
| 2026-05-08 12:20 | 51.87597 | -0.36058 | 516 ft | 35 kts | 75° |
| 2026-05-08 12:21 | 51.87663 | -0.35932 | 516 ft | 13 kts | 352° |
| 2026-05-08 12:21 | 51.87754 | -0.35965 | 516 ft | 14 kts | 331° |
| 2026-05-08 12:21 | 51.87779 | -0.36090 | 518 ft | 12 kts | 261° |
| 2026-05-08 12:21 | 51.87759 | -0.36221 | 518 ft | 13 kts | 255° |
| 2026-05-08 12:22 | 51.87735 | -0.36365 | 518 ft | 14 kts | 253° |
| 2026-05-08 12:22 | 51.87708 | -0.36511 | 520 ft | 13 kts | 253° |
| 2026-05-08 12:22 | 51.87684 | -0.36653 | 521 ft | 13 kts | 255° |
| 2026-05-08 12:22 | 51.87662 | -0.36788 | 524 ft | 11 kts | 264° |
| 2026-05-08 12:23 | 51.87723 | -0.36877 | 519 ft | 15 kts | 344° |
| 2026-05-08 12:23 | 51.87839 | -0.36934 | 512 ft | 20 kts | 343° |
| 2026-05-08 12:23 | 51.87933 | -0.36983 | 512 ft | 11 kts | 341° |
| 2026-05-08 12:23 | 51.87996 | -0.37036 | 512 ft | 9 kts | 308° |
| 2026-05-08 12:24 | 51.88033 | -0.37138 | 508 ft | 12 kts | 297° |
| 2026-05-08 12:24 | 51.88037 | -0.37227 | 508 ft | 5 kts | 252° |
| 2026-05-08 12:24 | 51.88031 | -0.37260 | 508 ft | 0 kts | 253° |
| 2026-05-08 12:24 | 51.88031 | -0.37261 | 508 ft | 0 kts | 253° |
| 2026-05-08 12:25 | 51.88029 | -0.37274 | 508 ft | 3 kts | 256° |
| 2026-05-08 12:25 | 51.88051 | -0.37307 | 508 ft | 7 kts | 330° |
| 2026-05-08 12:25 | 51.88080 | -0.37324 | 508 ft | 0 kts | 343° |
| 2026-05-08 12:25 | 51.88086 | -0.37327 | 508 ft | 1 kts | 343° |
| 2026-05-08 12:26 | 51.88089 | -0.37329 | 508 ft | 1 kts | 342° |